sensor_id;sensor_type;location;lat;lon;timestamp;pressure;altitude;pressure_sealevel;temperature;humidity
73151;BME280;61354;50.758;6.106;2022-11-20T00:02:10;98813.13;;;2.94;100.00
73151;BME280;61354;50.758;6.106;2022-11-20T00:04:35;98815.03;;;2.85;99.55
73151;BME280;61354;50.758;6.106;2022-11-20T00:07:00;98820.03;;;2.83;100.00
73151;BME280;61354;50.758;6.106;2022-11-20T00:09:26;98820.41;;;2.98;100.00
73151;BME280;61354;50.758;6.106;2022-11-20T00:11:51;98815.88;;;2.94;100.00
73151;BME280;61354;50.758;6.106;2022-11-20T00:14:17;98815.00;;;3.07;100.00
73151;BME280;61354;50.758;6.106;2022-11-20T00:16:42;98816.22;;;3.01;100.00
73151;BME280;61354;50.758;6.106;2022-11-20T00:19:08;98812.50;;;2.97;100.00
73151;BME280;61354;50.758;6.106;2022-11-20T00:21:34;98814.78;;;2.95;99.00
73151;BME280;61354;50.758;6.106;2022-11-20T00:23:59;98813.63;;;2.96;98.77
73151;BME280;61354;50.758;6.106;2022-11-20T00:26:26;98815.38;;;2.92;100.00
73151;BME280;61354;50.758;6.106;2022-11-20T00:28:57;98806.31;;;2.83;99.19
73151;BME280;61354;50.758;6.106;2022-11-20T00:31:23;98802.47;;;2.92;98.59
73151;BME280;61354;50.758;6.106;2022-11-20T00:33:49;98807.53;;;2.99;99.38
73151;BME280;61354;50.758;6.106;2022-11-20T00:36:17;98804.91;;;2.94;99.52
73151;BME280;61354;50.758;6.106;2022-11-20T00:38:43;98807.09;;;3.14;99.61
73151;BME280;61354;50.758;6.106;2022-11-20T00:41:10;98805.81;;;3.12;99.31
73151;BME280;61354;50.758;6.106;2022-11-20T00:43:36;98801.53;;;2.97;100.00
73151;BME280;61354;50.758;6.106;2022-11-20T00:46:05;98807.38;;;3.04;99.50
73151;BME280;61354;50.758;6.106;2022-11-20T00:48:31;98808.56;;;3.12;99.25
73151;BME280;61354;50.758;6.106;2022-11-20T00:50:57;98803.72;;;3.17;98.60
73151;BME280;61354;50.758;6.106;2022-11-20T00:53:23;98803.53;;;3.14;98.62
73151;BME280;61354;50.758;6.106;2022-11-20T00:58:20;98806.59;;;3.12;98.93
73151;BME280;61354;50.758;6.106;2022-11-20T01:00:46;98803.56;;;3.22;98.75
73151;BME280;61354;50.758;6.106;2022-11-20T01:03:11;98801.81;;;3.27;98.19
73151;BME280;61354;50.758;6.106;2022-11-20T01:05:37;98799.84;;;3.18;98.48
73151;BME280;61354;50.758;6.106;2022-11-20T01:08:02;98797.09;;;3.18;98.74
73151;BME280;61354;50.758;6.106;2022-11-20T01:10:27;98800.50;;;3.15;100.00
73151;BME280;61354;50.758;6.106;2022-11-20T01:12:53;98793.16;;;3.02;100.00
73151;BME280;61354;50.758;6.106;2022-11-20T01:15:38;98797.75;;;3.15;100.00
73151;BME280;61354;50.758;6.106;2022-11-20T01:18:04;98793.09;;;3.24;99.43
73151;BME280;61354;50.758;6.106;2022-11-20T01:20:34;98787.75;;;3.19;99.01
73151;BME280;61354;50.758;6.106;2022-11-20T01:22:59;98784.50;;;3.17;98.87
73151;BME280;61354;50.758;6.106;2022-11-20T01:25:25;98781.44;;;3.19;99.59
73151;BME280;61354;50.758;6.106;2022-11-20T01:27:50;98783.06;;;3.11;100.00
73151;BME280;61354;50.758;6.106;2022-11-20T01:30:16;98778.19;;;3.08;100.00
73151;BME280;61354;50.758;6.106;2022-11-20T01:32:41;98769.59;;;3.01;100.00
73151;BME280;61354;50.758;6.106;2022-11-20T01:35:07;98772.56;;;3.13;99.93
73151;BME280;61354;50.758;6.106;2022-11-20T01:37:35;98764.84;;;3.24;98.67
73151;BME280;61354;50.758;6.106;2022-11-20T01:40:00;98768.81;;;3.09;99.43
73151;BME280;61354;50.758;6.106;2022-11-20T01:42:26;98765.25;;;3.00;100.00
73151;BME280;61354;50.758;6.106;2022-11-20T01:48:13;98781.59;;;2.74;100.00
73151;BME280;61354;50.758;6.106;2022-11-20T01:50:40;98777.06;;;3.09;99.12
73151;BME280;61354;50.758;6.106;2022-11-20T01:53:11;98787.22;;;3.09;98.10
73151;BME280;61354;50.758;6.106;2022-11-20T01:55:51;98787.47;;;2.90;99.71
73151;BME280;61354;50.758;6.106;2022-11-20T01:58:20;98792.34;;;3.02;99.65
73151;BME280;61354;50.758;6.106;2022-11-20T02:00:48;98795.38;;;3.31;99.22
73151;BME280;61354;50.758;6.106;2022-11-20T02:03:16;98789.84;;;3.22;98.43
73151;BME280;61354;50.758;6.106;2022-11-20T02:08:29;98788.38;;;3.16;99.33
73151;BME280;61354;50.758;6.106;2022-11-20T02:10:55;98790.31;;;3.16;99.33
73151;BME280;61354;50.758;6.106;2022-11-20T02:13:20;98778.22;;;3.17;99.69
73151;BME280;61354;50.758;6.106;2022-11-20T02:16:08;98776.59;;;3.16;100.00
73151;BME280;61354;50.758;6.106;2022-11-20T02:18:33;98777.59;;;3.20;99.33
73151;BME280;61354;50.758;6.106;2022-11-20T02:24:04;98771.63;;;3.27;98.52
73151;BME280;61354;50.758;6.106;2022-11-20T02:26:32;98771.78;;;3.21;98.94
73151;BME280;61354;50.758;6.106;2022-11-20T02:29:00;98780.22;;;3.34;99.47
73151;BME280;61354;50.758;6.106;2022-11-20T02:31:26;98774.06;;;3.28;98.83
73151;BME280;61354;50.758;6.106;2022-11-20T02:33:58;98775.16;;;3.18;99.17
73151;BME280;61354;50.758;6.106;2022-11-20T02:36:25;98774.97;;;3.15;99.73
73151;BME280;61354;50.758;6.106;2022-11-20T02:38:51;98777.41;;;3.16;100.00
73151;BME280;61354;50.758;6.106;2022-11-20T02:41:16;98770.47;;;3.19;100.00
73151;BME280;61354;50.758;6.106;2022-11-20T02:43:41;98770.25;;;3.07;100.00
73151;BME280;61354;50.758;6.106;2022-11-20T02:46:07;98761.59;;;3.13;100.00
73151;BME280;61354;50.758;6.106;2022-11-20T02:48:33;98764.00;;;3.15;100.00
73151;BME280;61354;50.758;6.106;2022-11-20T02:50:59;98760.16;;;3.16;100.00
73151;BME280;61354;50.758;6.106;2022-11-20T02:53:25;98750.47;;;3.18;100.00
73151;BME280;61354;50.758;6.106;2022-11-20T02:55:50;98745.66;;;3.24;100.00
73151;BME280;61354;50.758;6.106;2022-11-20T02:58:16;98747.72;;;3.27;100.00
73151;BME280;61354;50.758;6.106;2022-11-20T03:00:41;98742.09;;;3.23;100.00
73151;BME280;61354;50.758;6.106;2022-11-20T03:03:06;98738.38;;;3.19;100.00
73151;BME280;61354;50.758;6.106;2022-11-20T03:05:32;98735.75;;;3.14;100.00
73151;BME280;61354;50.758;6.106;2022-11-20T03:07:57;98739.16;;;3.11;100.00
73151;BME280;61354;50.758;6.106;2022-11-20T03:10:23;98742.53;;;3.08;100.00
73151;BME280;61354;50.758;6.106;2022-11-20T03:12:55;98737.19;;;3.03;100.00
73151;BME280;61354;50.758;6.106;2022-11-20T03:15:22;98741.25;;;3.14;100.00
73151;BME280;61354;50.758;6.106;2022-11-20T03:17:48;98746.72;;;3.14;100.00
73151;BME280;61354;50.758;6.106;2022-11-20T03:20:13;98744.66;;;3.11;100.00
73151;BME280;61354;50.758;6.106;2022-11-20T03:22:39;98744.13;;;3.09;100.00
73151;BME280;61354;50.758;6.106;2022-11-20T03:25:05;98738.03;;;3.12;100.00
73151;BME280;61354;50.758;6.106;2022-11-20T03:27:34;98742.88;;;3.15;100.00
73151;BME280;61354;50.758;6.106;2022-11-20T03:30:00;98751.91;;;3.07;100.00
73151;BME280;61354;50.758;6.106;2022-11-20T03:32:25;98757.72;;;3.14;100.00
73151;BME280;61354;50.758;6.106;2022-11-20T03:34:51;98753.34;;;3.13;100.00
73151;BME280;61354;50.758;6.106;2022-11-20T03:37:16;98755.13;;;3.09;100.00
73151;BME280;61354;50.758;6.106;2022-11-20T03:39:42;98749.94;;;2.99;100.00
73151;BME280;61354;50.758;6.106;2022-11-20T03:42:08;98744.13;;;3.09;100.00
73151;BME280;61354;50.758;6.106;2022-11-20T03:44:53;98743.66;;;3.07;100.00
73151;BME280;61354;50.758;6.106;2022-11-20T03:47:19;98749.66;;;3.18;100.00
73151;BME280;61354;50.758;6.106;2022-11-20T03:49:44;98753.47;;;2.99;100.00
73151;BME280;61354;50.758;6.106;2022-11-20T03:52:10;98737.03;;;3.08;100.00
73151;BME280;61354;50.758;6.106;2022-11-20T03:54:35;98735.31;;;3.21;100.00
73151;BME280;61354;50.758;6.106;2022-11-20T03:57:00;98736.09;;;3.21;100.00
73151;BME280;61354;50.758;6.106;2022-11-20T03:59:26;98732.06;;;3.28;100.00
73151;BME280;61354;50.758;6.106;2022-11-20T04:01:51;98730.19;;;3.37;100.00
73151;BME280;61354;50.758;6.106;2022-11-20T04:04:17;98729.50;;;3.31;100.00
73151;BME280;61354;50.758;6.106;2022-11-20T04:06:42;98736.31;;;3.42;100.00
73151;BME280;61354;50.758;6.106;2022-11-20T04:09:08;98729.50;;;3.40;100.00
73151;BME280;61354;50.758;6.106;2022-11-20T04:11:35;98730.34;;;3.40;100.00
73151;BME280;61354;50.758;6.106;2022-11-20T04:14:03;98721.00;;;3.50;100.00
73151;BME280;61354;50.758;6.106;2022-11-20T04:16:31;98731.75;;;3.20;100.00
73151;BME280;61354;50.758;6.106;2022-11-20T04:18:59;98721.25;;;3.22;100.00
73151;BME280;61354;50.758;6.106;2022-11-20T04:21:25;98726.13;;;3.43;100.00
73151;BME280;61354;50.758;6.106;2022-11-20T04:23:52;98721.28;;;3.40;100.00
73151;BME280;61354;50.758;6.106;2022-11-20T04:26:22;98724.50;;;3.24;100.00
73151;BME280;61354;50.758;6.106;2022-11-20T04:28:48;98721.31;;;3.48;100.00
73151;BME280;61354;50.758;6.106;2022-11-20T04:31:15;98728.25;;;3.46;100.00
73151;BME280;61354;50.758;6.106;2022-11-20T04:33:41;98730.31;;;3.32;100.00
73151;BME280;61354;50.758;6.106;2022-11-20T04:36:10;98727.75;;;3.44;100.00
73151;BME280;61354;50.758;6.106;2022-11-20T04:38:36;98735.84;;;3.49;100.00
73151;BME280;61354;50.758;6.106;2022-11-20T04:41:04;98728.22;;;3.37;100.00
73151;BME280;61354;50.758;6.106;2022-11-20T04:43:30;98730.03;;;3.42;100.00
73151;BME280;61354;50.758;6.106;2022-11-20T04:45:56;98733.09;;;3.49;100.00
73151;BME280;61354;50.758;6.106;2022-11-20T04:48:23;98728.88;;;3.34;100.00
73151;BME280;61354;50.758;6.106;2022-11-20T04:50:48;98729.66;;;3.26;100.00
73151;BME280;61354;50.758;6.106;2022-11-20T04:53:14;98736.63;;;3.32;100.00
73151;BME280;61354;50.758;6.106;2022-11-20T04:55:39;98734.16;;;3.22;100.00
73151;BME280;61354;50.758;6.106;2022-11-20T04:58:05;98737.22;;;3.12;100.00
73151;BME280;61354;50.758;6.106;2022-11-20T05:00:30;98739.44;;;3.01;100.00
73151;BME280;61354;50.758;6.106;2022-11-20T05:02:56;98740.56;;;3.00;100.00
73151;BME280;61354;50.758;6.106;2022-11-20T05:05:21;98737.00;;;2.91;100.00
73151;BME280;61354;50.758;6.106;2022-11-20T05:07:47;98741.19;;;2.97;100.00
73151;BME280;61354;50.758;6.106;2022-11-20T05:10:12;98747.97;;;2.91;100.00
73151;BME280;61354;50.758;6.106;2022-11-20T05:12:38;98744.72;;;2.89;100.00
73151;BME280;61354;50.758;6.106;2022-11-20T05:15:03;98745.50;;;2.81;100.00
73151;BME280;61354;50.758;6.106;2022-11-20T05:17:29;98755.31;;;2.82;100.00
73151;BME280;61354;50.758;6.106;2022-11-20T05:19:54;98749.25;;;2.54;100.00
73151;BME280;61354;50.758;6.106;2022-11-20T05:22:20;98751.53;;;2.60;100.00
73151;BME280;61354;50.758;6.106;2022-11-20T05:24:45;98755.91;;;2.61;100.00
73151;BME280;61354;50.758;6.106;2022-11-20T05:27:10;98745.38;;;2.55;100.00
73151;BME280;61354;50.758;6.106;2022-11-20T05:29:36;98734.41;;;2.55;100.00
73151;BME280;61354;50.758;6.106;2022-11-20T05:32:01;98739.72;;;2.51;100.00
73151;BME280;61354;50.758;6.106;2022-11-20T05:34:27;98738.53;;;2.43;100.00
73151;BME280;61354;50.758;6.106;2022-11-20T05:36:52;98739.84;;;2.23;100.00
73151;BME280;61354;50.758;6.106;2022-11-20T05:39:18;98726.75;;;2.12;100.00
73151;BME280;61354;50.758;6.106;2022-11-20T05:41:43;98729.03;;;2.18;100.00
73151;BME280;61354;50.758;6.106;2022-11-20T05:44:12;98725.06;;;2.24;100.00
73151;BME280;61354;50.758;6.106;2022-11-20T05:46:37;98726.06;;;2.29;100.00
73151;BME280;61354;50.758;6.106;2022-11-20T05:49:03;98736.63;;;2.21;100.00
73151;BME280;61354;50.758;6.106;2022-11-20T05:51:29;98724.88;;;2.21;100.00
73151;BME280;61354;50.758;6.106;2022-11-20T05:53:57;98731.78;;;2.18;100.00
73151;BME280;61354;50.758;6.106;2022-11-20T05:56:23;98736.72;;;2.08;100.00
73151;BME280;61354;50.758;6.106;2022-11-20T05:58:49;98732.91;;;2.17;100.00
73151;BME280;61354;50.758;6.106;2022-11-20T06:01:33;98733.09;;;2.21;100.00
73151;BME280;61354;50.758;6.106;2022-11-20T06:03:58;98739.63;;;2.34;100.00
73151;BME280;61354;50.758;6.106;2022-11-20T06:06:24;98734.63;;;2.36;100.00
73151;BME280;61354;50.758;6.106;2022-11-20T06:08:51;98731.94;;;2.44;100.00
73151;BME280;61354;50.758;6.106;2022-11-20T06:11:17;98737.34;;;2.36;100.00
73151;BME280;61354;50.758;6.106;2022-11-20T06:13:43;98740.00;;;2.41;100.00
73151;BME280;61354;50.758;6.106;2022-11-20T06:16:10;98744.00;;;2.43;100.00
73151;BME280;61354;50.758;6.106;2022-11-20T06:18:36;98740.75;;;2.33;100.00
73151;BME280;61354;50.758;6.106;2022-11-20T06:21:07;98741.38;;;2.30;100.00
73151;BME280;61354;50.758;6.106;2022-11-20T06:23:34;98747.88;;;2.42;100.00
73151;BME280;61354;50.758;6.106;2022-11-20T06:26:10;98742.22;;;2.39;100.00
73151;BME280;61354;50.758;6.106;2022-11-20T06:28:36;98746.31;;;2.50;100.00
73151;BME280;61354;50.758;6.106;2022-11-20T06:31:02;98754.22;;;2.52;100.00
73151;BME280;61354;50.758;6.106;2022-11-20T06:33:28;98749.06;;;2.50;100.00
73151;BME280;61354;50.758;6.106;2022-11-20T06:36:00;98754.34;;;2.46;100.00
73151;BME280;61354;50.758;6.106;2022-11-20T06:38:27;98751.81;;;2.50;100.00
73151;BME280;61354;50.758;6.106;2022-11-20T06:40:53;98754.31;;;2.38;100.00
73151;BME280;61354;50.758;6.106;2022-11-20T06:43:19;98750.63;;;2.42;100.00
73151;BME280;61354;50.758;6.106;2022-11-20T06:45:44;98761.00;;;2.54;100.00
73151;BME280;61354;50.758;6.106;2022-11-20T06:48:10;98765.09;;;2.65;100.00
73151;BME280;61354;50.758;6.106;2022-11-20T06:50:38;98769.09;;;2.59;100.00
73151;BME280;61354;50.758;6.106;2022-11-20T06:53:03;98759.13;;;2.63;100.00
73151;BME280;61354;50.758;6.106;2022-11-20T06:55:31;98768.19;;;2.72;100.00
73151;BME280;61354;50.758;6.106;2022-11-20T06:57:56;98771.44;;;2.74;100.00
73151;BME280;61354;50.758;6.106;2022-11-20T07:00:22;98759.31;;;2.67;100.00
73151;BME280;61354;50.758;6.106;2022-11-20T07:02:47;98762.19;;;2.62;100.00
73151;BME280;61354;50.758;6.106;2022-11-20T07:05:13;98763.06;;;2.80;100.00
73151;BME280;61354;50.758;6.106;2022-11-20T07:07:38;98755.97;;;2.79;100.00
73151;BME280;61354;50.758;6.106;2022-11-20T07:10:04;98758.56;;;2.84;100.00
73151;BME280;61354;50.758;6.106;2022-11-20T07:12:30;98767.31;;;2.94;100.00
73151;BME280;61354;50.758;6.106;2022-11-20T07:14:55;98762.66;;;2.95;100.00
73151;BME280;61354;50.758;6.106;2022-11-20T07:17:21;98762.16;;;2.93;100.00
73151;BME280;61354;50.758;6.106;2022-11-20T07:19:47;98758.63;;;3.01;100.00
73151;BME280;61354;50.758;6.106;2022-11-20T07:22:12;98757.19;;;3.04;100.00
73151;BME280;61354;50.758;6.106;2022-11-20T07:24:38;98756.53;;;3.07;100.00
73151;BME280;61354;50.758;6.106;2022-11-20T07:27:04;98759.44;;;3.02;100.00
73151;BME280;61354;50.758;6.106;2022-11-20T07:29:29;98751.41;;;3.14;100.00
73151;BME280;61354;50.758;6.106;2022-11-20T07:31:55;98761.59;;;3.13;100.00
73151;BME280;61354;50.758;6.106;2022-11-20T07:34:21;98755.94;;;3.18;100.00
73151;BME280;61354;50.758;6.106;2022-11-20T07:36:46;98752.22;;;3.14;100.00
73151;BME280;61354;50.758;6.106;2022-11-20T07:39:12;98748.38;;;3.15;100.00
73151;BME280;61354;50.758;6.106;2022-11-20T07:41:37;98748.66;;;3.05;100.00
73151;BME280;61354;50.758;6.106;2022-11-20T07:44:03;98748.38;;;3.15;100.00
73151;BME280;61354;50.758;6.106;2022-11-20T07:46:28;98744.19;;;3.27;100.00
73151;BME280;61354;50.758;6.106;2022-11-20T07:48:54;98751.25;;;3.19;100.00
73151;BME280;61354;50.758;6.106;2022-11-20T07:51:19;98752.75;;;3.25;100.00
73151;BME280;61354;50.758;6.106;2022-11-20T07:53:44;98744.03;;;3.32;100.00
73151;BME280;61354;50.758;6.106;2022-11-20T07:56:10;98746.72;;;3.14;100.00
73151;BME280;61354;50.758;6.106;2022-11-20T07:58:35;98748.69;;;3.22;100.00
73151;BME280;61354;50.758;6.106;2022-11-20T08:01:05;98742.41;;;3.31;100.00
73151;BME280;61354;50.758;6.106;2022-11-20T08:03:31;98742.91;;;3.33;99.94
73151;BME280;61354;50.758;6.106;2022-11-20T08:06:00;98751.00;;;3.38;99.93
73151;BME280;61354;50.758;6.106;2022-11-20T08:08:26;98752.59;;;3.39;100.00
73151;BME280;61354;50.758;6.106;2022-11-20T08:10:52;98750.03;;;3.34;99.44
73151;BME280;61354;50.758;6.106;2022-11-20T08:13:17;98747.13;;;3.39;100.00
73151;BME280;61354;50.758;6.106;2022-11-20T08:16:01;98743.91;;;3.37;99.64
73151;BME280;61354;50.758;6.106;2022-11-20T08:18:26;98751.63;;;3.35;100.00
73151;BME280;61354;50.758;6.106;2022-11-20T08:20:52;98751.97;;;3.42;100.00
73151;BME280;61354;50.758;6.106;2022-11-20T08:23:17;98751.66;;;3.43;99.72
73151;BME280;61354;50.758;6.106;2022-11-20T08:25:43;98754.09;;;3.45;99.94
73151;BME280;61354;50.758;6.106;2022-11-20T08:28:09;98745.88;;;3.54;99.87
73151;BME280;61354;50.758;6.106;2022-11-20T08:30:36;98747.31;;;3.51;99.25
73151;BME280;61354;50.758;6.106;2022-11-20T08:33:08;98744.09;;;3.49;98.39
73151;BME280;61354;50.758;6.106;2022-11-20T08:35:38;98742.31;;;3.53;99.30
73151;BME280;61354;50.758;6.106;2022-11-20T08:38:06;98744.56;;;3.51;98.62
73151;BME280;61354;50.758;6.106;2022-11-20T08:40:33;98741.81;;;3.60;99.56
73151;BME280;61354;50.758;6.106;2022-11-20T08:42:58;98746.66;;;3.54;100.00
73151;BME280;61354;50.758;6.106;2022-11-20T08:45:24;98747.13;;;3.56;99.35
73151;BME280;61354;50.758;6.106;2022-11-20T08:47:49;98743.13;;;3.54;99.40
73151;BME280;61354;50.758;6.106;2022-11-20T08:50:16;98753.59;;;3.52;99.57
73151;BME280;61354;50.758;6.106;2022-11-20T08:52:42;98741.00;;;3.59;100.00
73151;BME280;61354;50.758;6.106;2022-11-20T08:55:08;98745.69;;;3.59;99.38
73151;BME280;61354;50.758;6.106;2022-11-20T08:57:35;98740.38;;;3.62;98.96
73151;BME280;61354;50.758;6.106;2022-11-20T09:00:03;98734.38;;;3.69;98.98
73151;BME280;61354;50.758;6.106;2022-11-20T09:02:28;98727.13;;;3.64;99.70
73151;BME280;61354;50.758;6.106;2022-11-20T09:04:54;98723.75;;;3.76;99.22
73151;BME280;61354;50.758;6.106;2022-11-20T09:07:19;98723.56;;;3.72;99.32
73151;BME280;61354;50.758;6.106;2022-11-20T09:09:45;98727.78;;;3.79;99.05
73151;BME280;61354;50.758;6.106;2022-11-20T09:12:11;98728.91;;;3.69;99.01
73151;BME280;61354;50.758;6.106;2022-11-20T09:14:36;98727.28;;;3.77;99.60
73151;BME280;61354;50.758;6.106;2022-11-20T09:17:02;98729.09;;;3.90;99.08
73151;BME280;61354;50.758;6.106;2022-11-20T09:19:27;98731.84;;;3.90;98.43
73151;BME280;61354;50.758;6.106;2022-11-20T09:21:53;98723.25;;;3.83;98.68
73151;BME280;61354;50.758;6.106;2022-11-20T09:24:19;98723.91;;;3.97;98.67
73151;BME280;61354;50.758;6.106;2022-11-20T09:26:45;98716.63;;;3.92;98.74
73151;BME280;61354;50.758;6.106;2022-11-20T09:29:11;98717.75;;;4.00;99.82
73151;BME280;61354;50.758;6.106;2022-11-20T09:31:36;98715.34;;;3.98;99.59
73151;BME280;61354;50.758;6.106;2022-11-20T09:34:02;98711.78;;;4.07;99.96
73151;BME280;61354;50.758;6.106;2022-11-20T09:36:27;98702.72;;;4.06;99.67
73151;BME280;61354;50.758;6.106;2022-11-20T09:38:53;98694.16;;;4.08;99.26
73151;BME280;61354;50.758;6.106;2022-11-20T09:50:18;98698.28;;;4.40;99.13
73151;BME280;61354;50.758;6.106;2022-11-20T09:53:16;98699.25;;;4.44;98.87
73151;BME280;61354;50.758;6.106;2022-11-20T09:55:46;98685.66;;;4.39;98.62
73151;BME280;61354;50.758;6.106;2022-11-20T09:58:25;98680.97;;;4.48;99.57
73151;BME280;61354;50.758;6.106;2022-11-20T10:00:52;98690.16;;;4.52;99.52
73151;BME280;61354;50.758;6.106;2022-11-20T10:03:39;98689.00;;;4.62;99.88
73151;BME280;61354;50.758;6.106;2022-11-20T10:06:13;98691.84;;;4.74;100.00
73151;BME280;61354;50.758;6.106;2022-11-20T10:19:40;98675.13;;;4.88;100.00
73151;BME280;61354;50.758;6.106;2022-11-20T10:22:27;98668.63;;;4.92;100.00
73151;BME280;61354;50.758;6.106;2022-11-20T10:25:15;98661.16;;;4.93;100.00
73151;BME280;61354;50.758;6.106;2022-11-20T10:28:00;98660.66;;;4.99;100.00
73151;BME280;61354;50.758;6.106;2022-11-20T10:30:37;98653.00;;;5.05;100.00
73151;BME280;61354;50.758;6.106;2022-11-20T10:33:25;98653.16;;;5.09;100.00
73151;BME280;61354;50.758;6.106;2022-11-20T10:38:47;98647.41;;;5.22;100.00
73151;BME280;61354;50.758;6.106;2022-11-20T10:41:23;98635.25;;;5.23;100.00
73151;BME280;61354;50.758;6.106;2022-11-20T10:43:53;98642.44;;;5.37;100.00
73151;BME280;61354;50.758;6.106;2022-11-20T10:46:22;98630.91;;;5.43;100.00
73151;BME280;61354;50.758;6.106;2022-11-20T10:48:49;98624.03;;;5.49;100.00
73151;BME280;61354;50.758;6.106;2022-11-20T10:51:18;98624.31;;;5.57;100.00
73151;BME280;61354;50.758;6.106;2022-11-20T10:56:24;98621.47;;;5.65;100.00
73151;BME280;61354;50.758;6.106;2022-11-20T11:01:40;98604.91;;;5.86;100.00
73151;BME280;61354;50.758;6.106;2022-11-20T11:04:42;98596.91;;;5.93;100.00
73151;BME280;61354;50.758;6.106;2022-11-20T11:09:47;98595.19;;;6.01;99.21
73151;BME280;61354;50.758;6.106;2022-11-20T11:12:14;98576.16;;;6.08;99.99
73151;BME280;61354;50.758;6.106;2022-11-20T11:14:50;98568.00;;;6.12;100.00
73151;BME280;61354;50.758;6.106;2022-11-20T11:22:44;98563.44;;;6.28;99.25
73151;BME280;61354;50.758;6.106;2022-11-20T11:25:28;98560.81;;;6.32;99.15
73151;BME280;61354;50.758;6.106;2022-11-20T11:28:00;98561.03;;;6.39;99.29
73151;BME280;61354;50.758;6.106;2022-11-20T11:30:27;98561.84;;;6.39;99.36
73151;BME280;61354;50.758;6.106;2022-11-20T11:33:06;98552.53;;;6.44;99.50
73151;BME280;61354;50.758;6.106;2022-11-20T11:35:32;98545.06;;;6.44;99.06
73151;BME280;61354;50.758;6.106;2022-11-20T11:38:10;98544.59;;;6.42;98.54
73151;BME280;61354;50.758;6.106;2022-11-20T11:40:38;98540.81;;;6.47;97.79
73151;BME280;61354;50.758;6.106;2022-11-20T11:43:06;98540.09;;;6.50;98.47
73151;BME280;61354;50.758;6.106;2022-11-20T11:45:54;98529.06;;;6.50;98.39
73151;BME280;61354;50.758;6.106;2022-11-20T11:48:20;98528.38;;;6.53;98.12
73151;BME280;61354;50.758;6.106;2022-11-20T11:50:50;98523.31;;;6.55;97.77
73151;BME280;61354;50.758;6.106;2022-11-20T11:53:18;98515.97;;;6.59;98.01
73151;BME280;61354;50.758;6.106;2022-11-20T12:04:17;98519.63;;;6.76;96.44
73151;BME280;61354;50.758;6.106;2022-11-20T12:06:48;98503.97;;;6.80;96.66
73151;BME280;61354;50.758;6.106;2022-11-20T12:09:18;98504.88;;;6.84;96.03
73151;BME280;61354;50.758;6.106;2022-11-20T12:11:51;98504.19;;;6.87;95.76
73151;BME280;61354;50.758;6.106;2022-11-20T12:16:56;98493.16;;;6.87;95.30
73151;BME280;61354;50.758;6.106;2022-11-20T12:19:23;98497.06;;;6.86;95.47
73151;BME280;61354;50.758;6.106;2022-11-20T12:22:21;98489.22;;;6.88;95.55
73151;BME280;61354;50.758;6.106;2022-11-20T12:25:17;98484.88;;;6.87;95.47
73151;BME280;61354;50.758;6.106;2022-11-20T12:27:54;98478.91;;;6.85;94.77
73151;BME280;61354;50.758;6.106;2022-11-20T12:30:26;98474.09;;;6.82;94.50
73151;BME280;61354;50.758;6.106;2022-11-20T12:32:58;98470.97;;;6.83;94.73
73151;BME280;61354;50.758;6.106;2022-11-20T12:43:36;98457.75;;;6.89;94.34
73151;BME280;61354;50.758;6.106;2022-11-20T12:49:43;98454.38;;;6.95;93.44
73151;BME280;61354;50.758;6.106;2022-11-20T12:52:20;98446.19;;;6.99;93.20
73151;BME280;61354;50.758;6.106;2022-11-20T12:55:13;98446.28;;;7.03;93.36
73151;BME280;61354;50.758;6.106;2022-11-20T12:57:54;98438.44;;;7.05;92.61
73151;BME280;61354;50.758;6.106;2022-11-20T13:00:23;98432.13;;;7.04;92.91
73151;BME280;61354;50.758;6.106;2022-11-20T13:06:10;98425.22;;;7.10;93.83
73151;BME280;61354;50.758;6.106;2022-11-20T13:08:40;98418.91;;;7.10;92.82
73151;BME280;61354;50.758;6.106;2022-11-20T13:14:13;98409.88;;;7.13;92.36
73151;BME280;61354;50.758;6.106;2022-11-20T13:16:45;98412.59;;;7.09;91.26
73151;BME280;61354;50.758;6.106;2022-11-20T13:19:15;98403.13;;;7.10;91.03
73151;BME280;61354;50.758;6.106;2022-11-20T13:21:46;98393.94;;;7.06;90.00
73151;BME280;61354;50.758;6.106;2022-11-20T13:29:26;98386.00;;;7.05;90.81
73151;BME280;61354;50.758;6.106;2022-11-20T13:32:02;98383.25;;;7.05;91.22
73151;BME280;61354;50.758;6.106;2022-11-20T13:34:29;98391.00;;;6.99;90.63
73151;BME280;61354;50.758;6.106;2022-11-20T13:36:56;98386.97;;;6.96;90.05
73151;BME280;61354;50.758;6.106;2022-11-20T13:39:27;98388.03;;;6.92;90.06
73151;BME280;61354;50.758;6.106;2022-11-20T13:41:57;98375.38;;;6.91;89.76
73151;BME280;61354;50.758;6.106;2022-11-20T13:46:58;98362.28;;;6.88;89.49
73151;BME280;61354;50.758;6.106;2022-11-20T13:49:38;98361.38;;;6.84;90.04
73151;BME280;61354;50.758;6.106;2022-11-20T13:52:30;98359.00;;;6.82;90.69
73151;BME280;61354;50.758;6.106;2022-11-20T14:00:22;98346.03;;;6.70;90.25
73151;BME280;61354;50.758;6.106;2022-11-20T14:03:01;98345.94;;;6.67;90.40
73151;BME280;61354;50.758;6.106;2022-11-20T14:05:28;98338.03;;;6.65;90.38
73151;BME280;61354;50.758;6.106;2022-11-20T14:07:56;98340.31;;;6.63;90.54
73151;BME280;61354;50.758;6.106;2022-11-20T14:10:28;98333.47;;;6.57;90.22
73151;BME280;61354;50.758;6.106;2022-11-20T14:12:54;98334.53;;;6.53;91.37
73151;BME280;61354;50.758;6.106;2022-11-20T14:15:31;98334.88;;;6.51;92.51
73151;BME280;61354;50.758;6.106;2022-11-20T14:18:11;98328.25;;;6.40;90.34
73151;BME280;61354;50.758;6.106;2022-11-20T14:20:37;98319.53;;;6.26;89.22
73151;BME280;61354;50.758;6.106;2022-11-20T14:23:04;98317.03;;;6.20;91.88
73151;BME280;61354;50.758;6.106;2022-11-20T14:25:30;98307.53;;;6.18;92.29
73151;BME280;61354;50.758;6.106;2022-11-20T14:28:01;98309.59;;;6.09;94.33
73151;BME280;61354;50.758;6.106;2022-11-20T14:30:37;98303.97;;;6.05;95.10
73151;BME280;61354;50.758;6.106;2022-11-20T14:33:04;98302.38;;;6.04;95.87
73151;BME280;61354;50.758;6.106;2022-11-20T14:35:34;98303.06;;;6.01;96.23
73151;BME280;61354;50.758;6.106;2022-11-20T14:38:01;98286.47;;;5.97;97.43
73151;BME280;61354;50.758;6.106;2022-11-20T14:40:33;98282.53;;;5.98;97.20
73151;BME280;61354;50.758;6.106;2022-11-20T14:45:54;98279.22;;;5.93;98.79